sensor_id;sensor_type;location;lat;lon;timestamp;P1;durP1;ratioP1;P2;durP2;ratioP2
40555;SDS011;26250;45.422;11.100;2023-08-12T00:01:08;5.47;;;2.20;;
40555;SDS011;26250;45.422;11.100;2023-08-12T00:03:35;3.58;;;2.67;;
40555;SDS011;26250;45.422;11.100;2023-08-12T00:06:02;2.78;;;2.58;;
40555;SDS011;26250;45.422;11.100;2023-08-12T00:08:31;10.55;;;2.85;;
40555;SDS011;26250;45.422;11.100;2023-08-12T00:10:58;4.15;;;2.58;;
40555;SDS011;26250;45.422;11.100;2023-08-12T00:13:27;3.42;;;2.63;;
40555;SDS011;26250;45.422;11.100;2023-08-12T00:15:54;5.03;;;2.90;;
40555;SDS011;26250;45.422;11.100;2023-08-12T00:18:22;3.75;;;2.20;;
40555;SDS011;26250;45.422;11.100;2023-08-12T00:20:49;6.60;;;2.60;;
40555;SDS011;26250;45.422;11.100;2023-08-12T00:23:16;3.13;;;2.53;;
40555;SDS011;26250;45.422;11.100;2023-08-12T00:25:43;5.22;;;2.75;;
40555;SDS011;26250;45.422;11.100;2023-08-12T00:28:10;6.07;;;3.13;;
40555;SDS011;26250;45.422;11.100;2023-08-12T00:30:37;5.65;;;2.60;;
40555;SDS011;26250;45.422;11.100;2023-08-12T00:33:04;4.68;;;2.90;;
40555;SDS011;26250;45.422;11.100;2023-08-12T00:35:31;3.95;;;3.00;;
40555;SDS011;26250;45.422;11.100;2023-08-12T00:37:58;3.85;;;2.47;;
40555;SDS011;26250;45.422;11.100;2023-08-12T00:40:26;4.65;;;2.63;;
40555;SDS011;26250;45.422;11.100;2023-08-12T00:42:53;2.83;;;2.55;;
40555;SDS011;26250;45.422;11.100;2023-08-12T00:45:20;5.32;;;2.80;;
40555;SDS011;26250;45.422;11.100;2023-08-12T00:47:47;3.00;;;2.67;;
40555;SDS011;26250;45.422;11.100;2023-08-12T00:50:14;3.28;;;2.35;;
40555;SDS011;26250;45.422;11.100;2023-08-12T00:52:42;3.05;;;2.45;;
40555;SDS011;26250;45.422;11.100;2023-08-12T00:55:12;4.82;;;2.67;;
40555;SDS011;26250;45.422;11.100;2023-08-12T00:57:39;4.82;;;2.72;;
40555;SDS011;26250;45.422;11.100;2023-08-12T01:00:06;2.42;;;2.33;;
40555;SDS011;26250;45.422;11.100;2023-08-12T01:02:34;3.67;;;3.38;;
40555;SDS011;26250;45.422;11.100;2023-08-12T01:05:03;3.95;;;3.30;;
40555;SDS011;26250;45.422;11.100;2023-08-12T01:07:31;3.85;;;2.97;;
40555;SDS011;26250;45.422;11.100;2023-08-12T01:09:59;4.55;;;3.05;;
40555;SDS011;26250;45.422;11.100;2023-08-12T01:12:28;5.75;;;3.00;;
40555;SDS011;26250;45.422;11.100;2023-08-12T01:15:17;2.97;;;2.72;;
40555;SDS011;26250;45.422;11.100;2023-08-12T01:17:48;5.47;;;2.75;;
40555;SDS011;26250;45.422;11.100;2023-08-12T01:20:20;9.52;;;2.63;;
40555;SDS011;26250;45.422;11.100;2023-08-12T01:22:58;3.70;;;2.72;;
40555;SDS011;26250;45.422;11.100;2023-08-12T01:25:43;8.13;;;2.97;;
40555;SDS011;26250;45.422;11.100;2023-08-12T01:28:10;3.15;;;2.78;;
40555;SDS011;26250;45.422;11.100;2023-08-12T01:30:46;3.90;;;2.97;;
40555;SDS011;26250;45.422;11.100;2023-08-12T01:33:38;2.65;;;2.47;;
40555;SDS011;26250;45.422;11.100;2023-08-12T01:36:15;3.50;;;2.90;;
40555;SDS011;26250;45.422;11.100;2023-08-12T01:38:44;4.68;;;3.25;;
40555;SDS011;26250;45.422;11.100;2023-08-12T01:41:13;9.07;;;3.38;;
40555;SDS011;26250;45.422;11.100;2023-08-12T01:43:41;3.25;;;2.85;;
40555;SDS011;26250;45.422;11.100;2023-08-12T01:46:09;2.72;;;2.47;;
40555;SDS011;26250;45.422;11.100;2023-08-12T01:48:36;13.07;;;2.70;;
40555;SDS011;26250;45.422;11.100;2023-08-12T01:51:04;7.85;;;3.67;;
40555;SDS011;26250;45.422;11.100;2023-08-12T01:53:31;4.40;;;2.38;;
40555;SDS011;26250;45.422;11.100;2023-08-12T01:55:58;3.85;;;3.28;;
40555;SDS011;26250;45.422;11.100;2023-08-12T01:58:25;12.32;;;2.58;;
40555;SDS011;26250;45.422;11.100;2023-08-12T02:00:55;2.92;;;2.50;;
40555;SDS011;26250;45.422;11.100;2023-08-12T02:03:22;2.83;;;2.63;;
40555;SDS011;26250;45.422;11.100;2023-08-12T02:05:50;2.45;;;2.25;;
40555;SDS011;26250;45.422;11.100;2023-08-12T02:08:17;10.63;;;3.53;;
40555;SDS011;26250;45.422;11.100;2023-08-12T02:10:44;8.88;;;2.65;;
40555;SDS011;26250;45.422;11.100;2023-08-12T02:13:11;4.85;;;2.33;;
40555;SDS011;26250;45.422;11.100;2023-08-12T02:15:38;7.03;;;2.97;;
40555;SDS011;26250;45.422;11.100;2023-08-12T02:18:10;8.07;;;2.63;;
40555;SDS011;26250;45.422;11.100;2023-08-12T02:20:37;4.15;;;3.00;;
40555;SDS011;26250;45.422;11.100;2023-08-12T02:23:04;4.32;;;3.33;;
40555;SDS011;26250;45.422;11.100;2023-08-12T02:25:31;10.20;;;3.38;;
40555;SDS011;26250;45.422;11.100;2023-08-12T02:27:58;7.25;;;3.17;;
40555;SDS011;26250;45.422;11.100;2023-08-12T02:30:26;9.15;;;2.80;;
40555;SDS011;26250;45.422;11.100;2023-08-12T02:32:55;5.07;;;2.80;;
40555;SDS011;26250;45.422;11.100;2023-08-12T02:35:23;3.63;;;2.78;;
40555;SDS011;26250;45.422;11.100;2023-08-12T02:37:50;2.85;;;2.53;;
40555;SDS011;26250;45.422;11.100;2023-08-12T02:40:17;6.55;;;3.35;;
40555;SDS011;26250;45.422;11.100;2023-08-12T02:42:47;4.43;;;2.95;;
40555;SDS011;26250;45.422;11.100;2023-08-12T02:45:13;4.10;;;2.85;;
40555;SDS011;26250;45.422;11.100;2023-08-12T02:47:40;5.25;;;3.03;;
40555;SDS011;26250;45.422;11.100;2023-08-12T02:50:08;4.60;;;2.55;;
40555;SDS011;26250;45.422;11.100;2023-08-12T02:52:35;10.48;;;3.33;;
40555;SDS011;26250;45.422;11.100;2023-08-12T02:55:02;3.25;;;2.92;;
40555;SDS011;26250;45.422;11.100;2023-08-12T02:57:32;4.47;;;2.80;;
40555;SDS011;26250;45.422;11.100;2023-08-12T02:59:59;4.38;;;2.60;;
40555;SDS011;26250;45.422;11.100;2023-08-12T03:02:26;6.53;;;2.78;;
40555;SDS011;26250;45.422;11.100;2023-08-12T03:04:53;3.10;;;2.78;;
40555;SDS011;26250;45.422;11.100;2023-08-12T03:07:20;5.03;;;2.58;;
40555;SDS011;26250;45.422;11.100;2023-08-12T03:09:47;4.45;;;2.65;;
40555;SDS011;26250;45.422;11.100;2023-08-12T03:12:14;4.45;;;2.78;;
40555;SDS011;26250;45.422;11.100;2023-08-12T03:14:41;3.30;;;3.10;;
40555;SDS011;26250;45.422;11.100;2023-08-12T03:17:09;3.17;;;2.88;;
40555;SDS011;26250;45.422;11.100;2023-08-12T03:19:37;6.82;;;2.78;;
40555;SDS011;26250;45.422;11.100;2023-08-12T03:22:05;2.55;;;2.35;;
40555;SDS011;26250;45.422;11.100;2023-08-12T03:24:33;5.75;;;3.85;;
40555;SDS011;26250;45.422;11.100;2023-08-12T03:27:00;3.95;;;2.75;;
40555;SDS011;26250;45.422;11.100;2023-08-12T03:29:32;3.45;;;2.80;;
40555;SDS011;26250;45.422;11.100;2023-08-12T03:31:59;5.35;;;2.60;;
40555;SDS011;26250;45.422;11.100;2023-08-12T03:34:28;9.00;;;2.88;;
40555;SDS011;26250;45.422;11.100;2023-08-12T03:36:58;3.33;;;3.00;;
40555;SDS011;26250;45.422;11.100;2023-08-12T03:39:26;4.13;;;3.13;;
40555;SDS011;26250;45.422;11.100;2023-08-12T03:41:54;3.30;;;2.85;;
40555;SDS011;26250;45.422;11.100;2023-08-12T03:44:21;5.10;;;3.05;;
40555;SDS011;26250;45.422;11.100;2023-08-12T03:46:50;4.47;;;3.40;;
40555;SDS011;26250;45.422;11.100;2023-08-12T03:49:20;4.85;;;3.20;;
40555;SDS011;26250;45.422;11.100;2023-08-12T03:51:48;3.92;;;3.53;;
40555;SDS011;26250;45.422;11.100;2023-08-12T03:54:15;3.22;;;2.92;;
40555;SDS011;26250;45.422;11.100;2023-08-12T03:56:42;4.75;;;3.28;;
40555;SDS011;26250;45.422;11.100;2023-08-12T03:59:09;7.10;;;3.90;;
40555;SDS011;26250;45.422;11.100;2023-08-12T04:01:36;9.93;;;3.35;;
40555;SDS011;26250;45.422;11.100;2023-08-12T04:04:04;4.20;;;3.40;;
40555;SDS011;26250;45.422;11.100;2023-08-12T04:06:31;5.22;;;2.90;;
40555;SDS011;26250;45.422;11.100;2023-08-12T04:09:01;6.38;;;3.28;;
40555;SDS011;26250;45.422;11.100;2023-08-12T04:11:28;3.50;;;3.20;;
40555;SDS011;26250;45.422;11.100;2023-08-12T04:13:55;6.65;;;3.97;;
40555;SDS011;26250;45.422;11.100;2023-08-12T04:16:23;4.55;;;3.47;;
40555;SDS011;26250;45.422;11.100;2023-08-12T04:18:50;4.28;;;3.42;;
40555;SDS011;26250;45.422;11.100;2023-08-12T04:21:17;11.15;;;4.38;;
40555;SDS011;26250;45.422;11.100;2023-08-12T04:23:44;4.20;;;3.17;;
40555;SDS011;26250;45.422;11.100;2023-08-12T04:26:11;6.70;;;3.17;;
40555;SDS011;26250;45.422;11.100;2023-08-12T04:28:38;6.20;;;3.42;;
40555;SDS011;26250;45.422;11.100;2023-08-12T04:31:08;5.95;;;3.53;;
40555;SDS011;26250;45.422;11.100;2023-08-12T04:33:40;8.98;;;3.55;;
40555;SDS011;26250;45.422;11.100;2023-08-12T04:36:08;3.65;;;3.03;;
40555;SDS011;26250;45.422;11.100;2023-08-12T04:38:38;13.77;;;3.70;;
40555;SDS011;26250;45.422;11.100;2023-08-12T04:41:08;6.57;;;3.80;;
40555;SDS011;26250;45.422;11.100;2023-08-12T04:43:36;6.03;;;3.38;;
40555;SDS011;26250;45.422;11.100;2023-08-12T04:46:03;3.42;;;3.13;;
40555;SDS011;26250;45.422;11.100;2023-08-12T04:48:31;4.10;;;3.15;;
40555;SDS011;26250;45.422;11.100;2023-08-12T04:51:00;4.70;;;3.65;;
40555;SDS011;26250;45.422;11.100;2023-08-12T04:53:32;5.97;;;3.20;;
40555;SDS011;26250;45.422;11.100;2023-08-12T04:56:02;6.50;;;3.72;;
40555;SDS011;26250;45.422;11.100;2023-08-12T04:58:30;28.20;;;4.20;;
40555;SDS011;26250;45.422;11.100;2023-08-12T05:00:57;9.95;;;3.50;;
40555;SDS011;26250;45.422;11.100;2023-08-12T05:03:24;6.53;;;3.25;;
40555;SDS011;26250;45.422;11.100;2023-08-12T05:05:52;8.52;;;3.70;;
40555;SDS011;26250;45.422;11.100;2023-08-12T05:08:23;5.60;;;3.53;;
40555;SDS011;26250;45.422;11.100;2023-08-12T05:10:50;3.58;;;3.25;;
40555;SDS011;26250;45.422;11.100;2023-08-12T05:13:18;3.50;;;2.92;;
40555;SDS011;26250;45.422;11.100;2023-08-12T05:15:45;5.57;;;2.85;;
40555;SDS011;26250;45.422;11.100;2023-08-12T05:18:15;6.93;;;4.10;;
40555;SDS011;26250;45.422;11.100;2023-08-12T05:20:43;8.63;;;3.70;;
40555;SDS011;26250;45.422;11.100;2023-08-12T05:23:13;3.60;;;3.15;;
40555;SDS011;26250;45.422;11.100;2023-08-12T05:25:42;4.95;;;3.80;;
40555;SDS011;26250;45.422;11.100;2023-08-12T05:28:09;5.65;;;3.25;;
40555;SDS011;26250;45.422;11.100;2023-08-12T05:30:36;10.20;;;3.17;;
40555;SDS011;26250;45.422;11.100;2023-08-12T05:33:04;50.25;;;4.18;;
40555;SDS011;26250;45.422;11.100;2023-08-12T05:35:35;16.63;;;3.47;;
40555;SDS011;26250;45.422;11.100;2023-08-12T05:38:02;4.40;;;3.53;;
40555;SDS011;26250;45.422;11.100;2023-08-12T05:40:29;7.22;;;3.58;;
40555;SDS011;26250;45.422;11.100;2023-08-12T05:42:56;6.18;;;3.70;;
40555;SDS011;26250;45.422;11.100;2023-08-12T05:45:23;5.97;;;3.15;;
40555;SDS011;26250;45.422;11.100;2023-08-12T05:47:50;9.00;;;3.33;;
40555;SDS011;26250;45.422;11.100;2023-08-12T05:50:17;8.35;;;3.33;;
40555;SDS011;26250;45.422;11.100;2023-08-12T05:52:44;4.72;;;3.17;;
40555;SDS011;26250;45.422;11.100;2023-08-12T05:55:11;11.75;;;5.28;;
40555;SDS011;26250;45.422;11.100;2023-08-12T05:57:38;9.23;;;3.65;;
40555;SDS011;26250;45.422;11.100;2023-08-12T06:00:05;5.45;;;3.75;;
40555;SDS011;26250;45.422;11.100;2023-08-12T06:02:39;9.90;;;3.42;;
40555;SDS011;26250;45.422;11.100;2023-08-12T06:05:06;6.43;;;3.08;;
40555;SDS011;26250;45.422;11.100;2023-08-12T06:07:34;6.68;;;3.63;;
40555;SDS011;26250;45.422;11.100;2023-08-12T06:10:03;7.85;;;3.60;;
40555;SDS011;26250;45.422;11.100;2023-08-12T06:12:30;3.63;;;3.10;;
40555;SDS011;26250;45.422;11.100;2023-08-12T06:14:57;9.15;;;3.60;;
40555;SDS011;26250;45.422;11.100;2023-08-12T06:17:26;6.65;;;3.67;;
40555;SDS011;26250;45.422;11.100;2023-08-12T06:19:53;6.05;;;4.82;;
40555;SDS011;26250;45.422;11.100;2023-08-12T06:22:20;8.35;;;3.70;;
40555;SDS011;26250;45.422;11.100;2023-08-12T06:24:49;4.90;;;3.28;;
40555;SDS011;26250;45.422;11.100;2023-08-12T06:27:16;8.82;;;3.90;;
40555;SDS011;26250;45.422;11.100;2023-08-12T06:29:43;3.88;;;3.58;;
40555;SDS011;26250;45.422;11.100;2023-08-12T06:32:10;7.20;;;3.67;;
40555;SDS011;26250;45.422;11.100;2023-08-12T06:34:39;10.10;;;4.10;;
40555;SDS011;26250;45.422;11.100;2023-08-12T06:37:07;10.60;;;4.20;;
40555;SDS011;26250;45.422;11.100;2023-08-12T06:39:34;10.93;;;5.25;;
40555;SDS011;26250;45.422;11.100;2023-08-12T06:42:02;8.55;;;4.90;;
40555;SDS011;26250;45.422;11.100;2023-08-12T06:44:29;7.03;;;4.57;;
40555;SDS011;26250;45.422;11.100;2023-08-12T06:46:56;9.05;;;5.78;;
40555;SDS011;26250;45.422;11.100;2023-08-12T06:49:23;13.77;;;5.50;;
40555;SDS011;26250;45.422;11.100;2023-08-12T06:51:50;12.10;;;6.18;;
40555;SDS011;26250;45.422;11.100;2023-08-12T06:54:17;16.13;;;4.75;;
40555;SDS011;26250;45.422;11.100;2023-08-12T06:56:45;7.68;;;5.40;;
40555;SDS011;26250;45.422;11.100;2023-08-12T06:59:12;6.95;;;6.18;;
40555;SDS011;26250;45.422;11.100;2023-08-12T07:01:39;10.13;;;6.10;;
40555;SDS011;26250;45.422;11.100;2023-08-12T07:04:06;9.10;;;5.97;;
40555;SDS011;26250;45.422;11.100;2023-08-12T07:06:33;14.85;;;6.22;;
40555;SDS011;26250;45.422;11.100;2023-08-12T07:09:02;9.85;;;5.82;;
40555;SDS011;26250;45.422;11.100;2023-08-12T07:11:29;11.05;;;6.35;;
40555;SDS011;26250;45.422;11.100;2023-08-12T07:13:56;12.20;;;6.10;;
40555;SDS011;26250;45.422;11.100;2023-08-12T07:16:24;10.95;;;5.50;;
40555;SDS011;26250;45.422;11.100;2023-08-12T07:18:51;8.38;;;5.95;;
40555;SDS011;26250;45.422;11.100;2023-08-12T07:21:18;6.65;;;5.38;;
40555;SDS011;26250;45.422;11.100;2023-08-12T07:23:45;5.85;;;5.25;;
40555;SDS011;26250;45.422;11.100;2023-08-12T07:26:28;5.38;;;4.20;;
40555;SDS011;26250;45.422;11.100;2023-08-12T07:28:56;11.32;;;3.92;;
40555;SDS011;26250;45.422;11.100;2023-08-12T07:31:23;4.53;;;3.42;;
40555;SDS011;26250;45.422;11.100;2023-08-12T07:33:50;10.32;;;5.00;;
40555;SDS011;26250;45.422;11.100;2023-08-12T07:36:17;7.50;;;5.40;;
40555;SDS011;26250;45.422;11.100;2023-08-12T07:38:43;13.15;;;5.85;;
40555;SDS011;26250;45.422;11.100;2023-08-12T07:41:10;15.25;;;6.05;;
40555;SDS011;26250;45.422;11.100;2023-08-12T07:43:37;6.00;;;4.55;;
40555;SDS011;26250;45.422;11.100;2023-08-12T07:46:04;6.68;;;5.20;;
40555;SDS011;26250;45.422;11.100;2023-08-12T07:48:35;9.50;;;4.20;;
40555;SDS011;26250;45.422;11.100;2023-08-12T07:51:03;9.55;;;3.72;;
40555;SDS011;26250;45.422;11.100;2023-08-12T07:53:31;9.30;;;4.32;;
40555;SDS011;26250;45.422;11.100;2023-08-12T07:55:58;10.20;;;4.32;;
40555;SDS011;26250;45.422;11.100;2023-08-12T07:58:25;5.53;;;4.53;;
40555;SDS011;26250;45.422;11.100;2023-08-12T08:00:53;14.18;;;4.70;;
40555;SDS011;26250;45.422;11.100;2023-08-12T08:03:20;6.72;;;4.43;;
40555;SDS011;26250;45.422;11.100;2023-08-12T08:05:47;6.35;;;4.65;;
40555;SDS011;26250;45.422;11.100;2023-08-12T08:08:14;15.10;;;4.43;;
40555;SDS011;26250;45.422;11.100;2023-08-12T08:10:41;5.55;;;4.47;;
40555;SDS011;26250;45.422;11.100;2023-08-12T08:13:08;3.67;;;3.20;;
40555;SDS011;26250;45.422;11.100;2023-08-12T08:15:35;3.47;;;2.78;;
40555;SDS011;26250;45.422;11.100;2023-08-12T08:18:02;7.03;;;4.05;;
40555;SDS011;26250;45.422;11.100;2023-08-12T08:20:31;6.00;;;4.15;;
40555;SDS011;26250;45.422;11.100;2023-08-12T08:22:58;4.32;;;3.53;;
40555;SDS011;26250;45.422;11.100;2023-08-12T08:25:25;9.38;;;4.38;;
40555;SDS011;26250;45.422;11.100;2023-08-12T08:27:52;9.50;;;4.82;;
40555;SDS011;26250;45.422;11.100;2023-08-12T08:30:19;6.40;;;4.10;;
40555;SDS011;26250;45.422;11.100;2023-08-12T08:32:46;7.72;;;4.60;;
40555;SDS011;26250;45.422;11.100;2023-08-12T08:35:13;8.85;;;4.53;;
40555;SDS011;26250;45.422;11.100;2023-08-12T08:37:41;6.88;;;3.72;;
40555;SDS011;26250;45.422;11.100;2023-08-12T08:40:08;5.43;;;3.03;;
40555;SDS011;26250;45.422;11.100;2023-08-12T08:42:38;11.35;;;3.78;;
40555;SDS011;26250;45.422;11.100;2023-08-12T08:45:12;6.25;;;3.97;;
40555;SDS011;26250;45.422;11.100;2023-08-12T08:47:41;5.93;;;4.43;;
40555;SDS011;26250;45.422;11.100;2023-08-12T08:50:09;7.40;;;3.67;;
40555;SDS011;26250;45.422;11.100;2023-08-12T08:52:37;10.32;;;3.65;;
40555;SDS011;26250;45.422;11.100;2023-08-12T08:55:04;5.63;;;3.92;;
40555;SDS011;26250;45.422;11.100;2023-08-12T08:57:33;6.75;;;3.13;;
40555;SDS011;26250;45.422;11.100;2023-08-12T09:00:13;8.65;;;4.22;;
40555;SDS011;26250;45.422;11.100;2023-08-12T09:02:45;6.93;;;3.38;;
40555;SDS011;26250;45.422;11.100;2023-08-12T09:05:14;3.35;;;2.63;;
40555;SDS011;26250;45.422;11.100;2023-08-12T09:07:42;3.90;;;3.22;;
40555;SDS011;26250;45.422;11.100;2023-08-12T09:10:10;3.88;;;3.00;;
40555;SDS011;26250;45.422;11.100;2023-08-12T09:12:41;3.33;;;2.88;;
40555;SDS011;26250;45.422;11.100;2023-08-12T09:15:11;3.17;;;2.60;;
40555;SDS011;26250;45.422;11.100;2023-08-12T09:17:38;5.78;;;3.08;;
40555;SDS011;26250;45.422;11.100;2023-08-12T09:20:05;4.65;;;2.83;;
40555;SDS011;26250;45.422;11.100;2023-08-12T09:22:42;4.13;;;3.28;;
40555;SDS011;26250;45.422;11.100;2023-08-12T09:25:09;4.13;;;3.10;;
40555;SDS011;26250;45.422;11.100;2023-08-12T09:27:37;5.93;;;3.20;;
40555;SDS011;26250;45.422;11.100;2023-08-12T09:30:06;6.82;;;3.13;;
40555;SDS011;26250;45.422;11.100;2023-08-12T09:32:36;4.28;;;3.05;;
40555;SDS011;26250;45.422;11.100;2023-08-12T09:35:05;6.60;;;2.80;;
40555;SDS011;26250;45.422;11.100;2023-08-12T09:37:42;3.80;;;3.00;;
40555;SDS011;26250;45.422;11.100;2023-08-12T09:40:09;7.55;;;2.75;;
40555;SDS011;26250;45.422;11.100;2023-08-12T09:42:44;4.90;;;3.17;;
40555;SDS011;26250;45.422;11.100;2023-08-12T09:45:12;4.82;;;3.30;;
40555;SDS011;26250;45.422;11.100;2023-08-12T09:47:41;4.43;;;3.55;;
40555;SDS011;26250;45.422;11.100;2023-08-12T09:50:09;8.73;;;3.72;;
40555;SDS011;26250;45.422;11.100;2023-08-12T09:52:36;5.45;;;3.65;;
40555;SDS011;26250;45.422;11.100;2023-08-12T09:55:04;4.78;;;3.55;;
40555;SDS011;26250;45.422;11.100;2023-08-12T09:57:34;5.05;;;3.70;;
40555;SDS011;26250;45.422;11.100;2023-08-12T10:00:07;4.05;;;3.17;;
40555;SDS011;26250;45.422;11.100;2023-08-12T10:02:44;4.00;;;3.53;;
40555;SDS011;26250;45.422;11.100;2023-08-12T10:05:13;3.97;;;3.67;;
40555;SDS011;26250;45.422;11.100;2023-08-12T10:07:47;3.55;;;2.70;;
40555;SDS011;26250;45.422;11.100;2023-08-12T10:10:15;3.28;;;2.97;;
40555;SDS011;26250;45.422;11.100;2023-08-12T10:12:42;5.88;;;3.15;;
40555;SDS011;26250;45.422;11.100;2023-08-12T10:15:10;4.93;;;2.83;;
40555;SDS011;26250;45.422;11.100;2023-08-12T10:17:38;3.33;;;3.05;;
40555;SDS011;26250;45.422;11.100;2023-08-12T10:20:12;6.23;;;3.77;;
40555;SDS011;26250;45.422;11.100;2023-08-12T10:22:40;4.30;;;3.13;;
40555;SDS011;26250;45.422;11.100;2023-08-12T10:25:11;5.18;;;3.15;;
40555;SDS011;26250;45.422;11.100;2023-08-12T10:27:41;4.07;;;3.35;;
40555;SDS011;26250;45.422;11.100;2023-08-12T10:30:08;4.07;;;3.45;;
40555;SDS011;26250;45.422;11.100;2023-08-12T10:32:36;6.95;;;3.00;;
40555;SDS011;26250;45.422;11.100;2023-08-12T10:35:05;5.50;;;3.33;;
40555;SDS011;26250;45.422;11.100;2023-08-12T10:37:33;6.03;;;3.35;;
40555;SDS011;26250;45.422;11.100;2023-08-12T10:40:04;7.22;;;3.72;;
40555;SDS011;26250;45.422;11.100;2023-08-12T10:42:47;6.75;;;3.30;;
40555;SDS011;26250;45.422;11.100;2023-08-12T10:45:15;6.93;;;4.35;;
40555;SDS011;26250;45.422;11.100;2023-08-12T10:47:48;4.32;;;3.92;;
40555;SDS011;26250;45.422;11.100;2023-08-12T10:50:39;3.28;;;2.97;;
40555;SDS011;26250;45.422;11.100;2023-08-12T10:53:28;4.53;;;4.13;;
40555;SDS011;26250;45.422;11.100;2023-08-12T10:55:57;7.00;;;3.38;;
40555;SDS011;26250;45.422;11.100;2023-08-12T10:58:45;7.32;;;3.67;;
40555;SDS011;26250;45.422;11.100;2023-08-12T11:01:16;5.78;;;3.40;;
40555;SDS011;26250;45.422;11.100;2023-08-12T11:03:44;9.02;;;4.40;;
40555;SDS011;26250;45.422;11.100;2023-08-12T11:06:13;6.20;;;3.60;;
40555;SDS011;26250;45.422;11.100;2023-08-12T11:08:46;5.60;;;3.72;;
40555;SDS011;26250;45.422;11.100;2023-08-12T11:13:58;5.25;;;3.50;;
40555;SDS011;26250;45.422;11.100;2023-08-12T11:16:35;5.95;;;3.42;;
40555;SDS011;26250;45.422;11.100;2023-08-12T11:19:03;4.82;;;3.35;;
40555;SDS011;26250;45.422;11.100;2023-08-12T11:21:30;4.00;;;3.63;;
40555;SDS011;26250;45.422;11.100;2023-08-12T11:23:57;7.80;;;3.80;;
40555;SDS011;26250;45.422;11.100;2023-08-12T11:26:27;4.28;;;3.67;;
40555;SDS011;26250;45.422;11.100;2023-08-12T11:28:54;4.95;;;3.53;;
40555;SDS011;26250;45.422;11.100;2023-08-12T11:31:21;3.25;;;3.00;;
40555;SDS011;26250;45.422;11.100;2023-08-12T11:33:48;5.80;;;3.45;;
40555;SDS011;26250;45.422;11.100;2023-08-12T11:36:16;3.25;;;3.05;;
40555;SDS011;26250;45.422;11.100;2023-08-12T11:38:43;3.15;;;2.63;;
40555;SDS011;26250;45.422;11.100;2023-08-12T11:41:10;12.23;;;3.45;;
40555;SDS011;26250;45.422;11.100;2023-08-12T11:43:38;5.15;;;2.90;;
40555;SDS011;26250;45.422;11.100;2023-08-12T11:46:05;3.00;;;2.75;;
40555;SDS011;26250;45.422;11.100;2023-08-12T11:48:32;3.58;;;3.28;;
40555;SDS011;26250;45.422;11.100;2023-08-12T11:50:59;3.80;;;3.08;;
40555;SDS011;26250;45.422;11.100;2023-08-12T11:53:26;5.05;;;3.42;;
40555;SDS011;26250;45.422;11.100;2023-08-12T11:55:53;3.88;;;3.35;;
40555;SDS011;26250;45.422;11.100;2023-08-12T11:58:21;5.10;;;3.40;;
40555;SDS011;26250;45.422;11.100;2023-08-12T12:00:49;5.38;;;3.67;;
40555;SDS011;26250;45.422;11.100;2023-08-12T12:03:16;8.60;;;3.67;;
40555;SDS011;26250;45.422;11.100;2023-08-12T12:05:45;6.18;;;3.13;;
40555;SDS011;26250;45.422;11.100;2023-08-12T12:08:13;5.68;;;3.42;;
40555;SDS011;26250;45.422;11.100;2023-08-12T12:10:40;5.78;;;3.53;;
40555;SDS011;26250;45.422;11.100;2023-08-12T12:13:07;16.23;;;2.92;;
40555;SDS011;26250;45.422;11.100;2023-08-12T12:15:43;5.60;;;3.17;;
40555;SDS011;26250;45.422;11.100;2023-08-12T12:18:11;8.93;;;3.80;;
40555;SDS011;26250;45.422;11.100;2023-08-12T12:20:57;5.78;;;3.35;;
40555;SDS011;26250;45.422;11.100;2023-08-12T12:23:28;3.17;;;2.95;;
40555;SDS011;26250;45.422;11.100;2023-08-12T12:25:59;9.73;;;3.75;;
40555;SDS011;26250;45.422;11.100;2023-08-12T12:28:28;4.78;;;3.80;;
40555;SDS011;26250;45.422;11.100;2023-08-12T12:30:55;3.30;;;3.00;;
40555;SDS011;26250;45.422;11.100;2023-08-12T12:33:22;5.82;;;3.20;;
40555;SDS011;26250;45.422;11.100;2023-08-12T12:35:52;10.00;;;3.42;;
40555;SDS011;26250;45.422;11.100;2023-08-12T12:38:26;3.50;;;3.20;;
40555;SDS011;26250;45.422;11.100;2023-08-12T12:40:53;6.20;;;4.18;;
40555;SDS011;26250;45.422;11.100;2023-08-12T12:43:20;5.75;;;3.42;;
40555;SDS011;26250;45.422;11.100;2023-08-12T12:45:47;6.72;;;3.53;;
40555;SDS011;26250;45.422;11.100;2023-08-12T12:48:14;4.18;;;3.28;;
40555;SDS011;26250;45.422;11.100;2023-08-12T12:50:41;4.00;;;2.65;;
40555;SDS011;26250;45.422;11.100;2023-08-12T12:53:08;3.28;;;2.97;;
40555;SDS011;26250;45.422;11.100;2023-08-12T12:55:35;3.17;;;2.65;;
40555;SDS011;26250;45.422;11.100;2023-08-12T12:58:02;6.97;;;3.17;;
40555;SDS011;26250;45.422;11.100;2023-08-12T13:00:29;3.47;;;3.15;;
40555;SDS011;26250;45.422;11.100;2023-08-12T13:02:57;2.97;;;2.75;;
40555;SDS011;26250;45.422;11.100;2023-08-12T13:05:24;5.13;;;3.30;;
40555;SDS011;26250;45.422;11.100;2023-08-12T13:07:51;9.40;;;3.40;;
40555;SDS011;26250;45.422;11.100;2023-08-12T13:10:18;6.72;;;3.15;;
40555;SDS011;26250;45.422;11.100;2023-08-12T13:12:45;6.38;;;3.97;;
40555;SDS011;26250;45.422;11.100;2023-08-12T13:15:12;5.63;;;3.38;;
40555;SDS011;26250;45.422;11.100;2023-08-12T13:17:39;2.90;;;2.65;;
40555;SDS011;26250;45.422;11.100;2023-08-12T13:20:06;7.65;;;3.70;;
40555;SDS011;26250;45.422;11.100;2023-08-12T13:22:34;6.15;;;3.13;;
40555;SDS011;26250;45.422;11.100;2023-08-12T13:25:01;6.28;;;3.28;;
40555;SDS011;26250;45.422;11.100;2023-08-12T13:27:29;3.78;;;3.25;;
40555;SDS011;26250;45.422;11.100;2023-08-12T13:29:56;6.55;;;3.50;;
40555;SDS011;26250;45.422;11.100;2023-08-12T13:32:25;6.43;;;3.30;;
40555;SDS011;26250;45.422;11.100;2023-08-12T13:34:52;10.95;;;4.88;;
40555;SDS011;26250;45.422;11.100;2023-08-12T13:37:20;3.15;;;2.85;;
40555;SDS011;26250;45.422;11.100;2023-08-12T13:39:47;3.88;;;3.13;;
40555;SDS011;26250;45.422;11.100;2023-08-12T13:42:17;13.40;;;3.80;;
40555;SDS011;26250;45.422;11.100;2023-08-12T13:44:44;4.57;;;3.33;;
40555;SDS011;26250;45.422;11.100;2023-08-12T13:47:10;6.13;;;3.17;;
40555;SDS011;26250;45.422;11.100;2023-08-12T13:49:37;9.57;;;3.47;;
40555;SDS011;26250;45.422;11.100;2023-08-12T13:52:04;3.60;;;2.85;;
40555;SDS011;26250;45.422;11.100;2023-08-12T13:54:34;3.70;;;2.50;;
40555;SDS011;26250;45.422;11.100;2023-08-12T13:57:02;3.58;;;3.30;;
40555;SDS011;26250;45.422;11.100;2023-08-12T13:59:30;14.23;;;3.53;;
40555;SDS011;26250;45.422;11.100;2023-08-12T14:01:57;4.03;;;3.30;;
40555;SDS011;26250;45.422;11.100;2023-08-12T14:04:24;6.80;;;3.05;;
40555;SDS011;26250;45.422;11.100;2023-08-12T14:06:51;9.82;;;3.00;;
40555;SDS011;26250;45.422;11.100;2023-08-12T14:09:18;3.92;;;3.05;;
40555;SDS011;26250;45.422;11.100;2023-08-12T14:11:46;3.42;;;3.05;;
40555;SDS011;26250;45.422;11.100;2023-08-12T14:14:13;3.90;;;3.25;;
40555;SDS011;26250;45.422;11.100;2023-08-12T14:16:40;6.22;;;2.67;;
40555;SDS011;26250;45.422;11.100;2023-08-12T14:19:07;7.85;;;3.05;;
40555;SDS011;26250;45.422;11.100;2023-08-12T14:21:35;7.15;;;3.00;;
40555;SDS011;26250;45.422;11.100;2023-08-12T14:24:02;4.68;;;3.25;;
40555;SDS011;26250;45.422;11.100;2023-08-12T14:26:29;4.25;;;2.95;;
40555;SDS011;26250;45.422;11.100;2023-08-12T14:28:56;5.30;;;3.10;;
40555;SDS011;26250;45.422;11.100;2023-08-12T14:31:23;4.30;;;3.40;;
40555;SDS011;26250;45.422;11.100;2023-08-12T14:33:50;3.65;;;3.28;;
40555;SDS011;26250;45.422;11.100;2023-08-12T14:36:17;5.50;;;3.17;;
40555;SDS011;26250;45.422;11.100;2023-08-12T14:38:44;4.88;;;3.38;;
40555;SDS011;26250;45.422;11.100;2023-08-12T14:41:11;3.55;;;2.90;;
40555;SDS011;26250;45.422;11.100;2023-08-12T14:43:38;3.53;;;2.63;;